Pagina principale
METAR-TAF:

METAR-TAF

Aeroporti :

Khartum, Sudan

Aeroporto Internazionale di Khartum

latitudine: 15-36N, longitudine: 032-33E, altezza: 382 m

Osservazione

Il bollettino è stato emesso 31 minuti fa, alle 13:30 UTC
Vento 13 kt da nord
Temperature 40°C
Umidità 8%
Pressione 1005 hPa
Visibilità 10 km o più
nessuna nube inferiore a 1500 m e nessun cumulonembo

METAR: HSSS 241330Z 36013KT CAVOK 40/00 Q1005 NOSIG

Ora: 17:01 (14:01 UTC)

Previsione

Il bollettino è stato emesso 3 ore e 1 minuti fa, alle 11:00 UTC
Previsione valida dal 24 alle 12 UTC al 25 alle 18 UTC
Vento 11 kt da nord
Visibilità 10 km o più
nessuna nube inferiore a 1500 m e nessun cumulonembo
Evoluzione graduale
dal 24 alle 14 UTC al 24 alle 16 UTC
Vento 3 kt da direzioni variabili
Temporaneamente
dal 24 alle 16 UTC al 24 alle 19 UTC
Visibilità: 4000 m
foschia

TAF: HSSS 241100Z 2412/2518 35011KT CAVOK BECMG 2414/2416 VRB03KT TEMPO 2416/2419 4000 HZ

Osservazioni e previsioni meteorologiche di più di 4000 aeroporti (messaggi METAR e TAF).

Le stazioni disponibili sono rappresentate dai dischi gialli e rossi sulla carta.

Puntare il mouse per vedere il nome della stazione.

Clicca sopra per visualizzare le osservazioni e previsioni meteorologiche.

Per cambiare la mappa : fare clic sui pulsanti verdi con una croce nera per ingrandire, il pulsante verde con un trattino per diminuire, o sulla freccia verde per le mappe adiacenti.


METAR-TAF: